sensor_id;sensor_type;location;lat;lon;timestamp;pressure;altitude;pressure_sealevel;temperature;humidity
23616;BME280;11985;49.404;7.734;2024-03-02T00:03:08;96031.75;;;2.27;100.00
23616;BME280;11985;49.404;7.734;2024-03-02T00:08:10;96030.69;;;2.21;100.00
23616;BME280;11985;49.404;7.734;2024-03-02T00:13:12;96031.16;;;2.10;100.00
23616;BME280;11985;49.404;7.734;2024-03-02T00:18:18;96027.88;;;2.01;100.00
23616;BME280;11985;49.404;7.734;2024-03-02T00:23:20;96019.09;;;2.02;100.00
23616;BME280;11985;49.404;7.734;2024-03-02T00:28:24;96018.16;;;2.10;100.00
23616;BME280;11985;49.404;7.734;2024-03-02T00:33:30;96020.22;;;2.15;100.00
23616;BME280;11985;49.404;7.734;2024-03-02T00:38:33;96013.63;;;2.12;100.00
23616;BME280;11985;49.404;7.734;2024-03-02T00:43:43;96009.84;;;2.15;100.00
23616;BME280;11985;49.404;7.734;2024-03-02T00:48:52;96010.47;;;2.17;100.00
23616;BME280;11985;49.404;7.734;2024-03-02T00:53:58;96014.59;;;2.32;100.00
23616;BME280;11985;49.404;7.734;2024-03-02T00:58:59;96014.88;;;2.37;100.00
23616;BME280;11985;49.404;7.734;2024-03-02T01:04:02;96012.72;;;2.41;100.00
23616;BME280;11985;49.404;7.734;2024-03-02T01:09:04;96016.06;;;2.35;100.00
23616;BME280;11985;49.404;7.734;2024-03-02T01:14:06;96013.28;;;2.22;100.00
23616;BME280;11985;49.404;7.734;2024-03-02T01:19:09;96003.13;;;2.05;100.00
23616;BME280;11985;49.404;7.734;2024-03-02T01:24:11;96001.38;;;1.91;100.00
23616;BME280;11985;49.404;7.734;2024-03-02T01:29:13;95998.38;;;1.73;100.00
23616;BME280;11985;49.404;7.734;2024-03-02T01:34:16;95992.66;;;1.63;100.00
23616;BME280;11985;49.404;7.734;2024-03-02T01:39:18;95986.94;;;1.52;100.00
23616;BME280;11985;49.404;7.734;2024-03-02T01:44:19;95990.00;;;1.56;100.00
23616;BME280;11985;49.404;7.734;2024-03-02T01:49:22;95995.00;;;1.57;100.00
23616;BME280;11985;49.404;7.734;2024-03-02T01:54:24;95995.78;;;1.58;100.00
23616;BME280;11985;49.404;7.734;2024-03-02T01:59:25;95993.75;;;1.53;100.00
23616;BME280;11985;49.404;7.734;2024-03-02T02:04:29;95982.28;;;1.48;100.00
23616;BME280;11985;49.404;7.734;2024-03-02T02:09:31;95979.50;;;1.49;100.00
23616;BME280;11985;49.404;7.734;2024-03-02T02:14:32;95973.78;;;1.54;100.00
23616;BME280;11985;49.404;7.734;2024-03-02T02:19:35;95974.31;;;1.64;100.00
23616;BME280;11985;49.404;7.734;2024-03-02T02:24:41;95963.28;;;1.77;100.00
23616;BME280;11985;49.404;7.734;2024-03-02T02:29:42;95968.00;;;1.88;100.00
23616;BME280;11985;49.404;7.734;2024-03-02T02:34:44;95956.81;;;1.88;100.00
23616;BME280;11985;49.404;7.734;2024-03-02T02:39:47;95958.25;;;1.90;100.00
23616;BME280;11985;49.404;7.734;2024-03-02T02:44:48;95954.28;;;1.94;100.00
23616;BME280;11985;49.404;7.734;2024-03-02T02:49:50;95946.31;;;1.96;100.00
23616;BME280;11985;49.404;7.734;2024-03-02T02:54:53;95945.88;;;1.92;100.00
23616;BME280;11985;49.404;7.734;2024-03-02T02:59:54;95949.34;;;1.99;100.00
23616;BME280;11985;49.404;7.734;2024-03-02T03:04:56;95942.25;;;2.08;100.00
23616;BME280;11985;49.404;7.734;2024-03-02T03:09:59;95929.31;;;2.15;100.00
23616;BME280;11985;49.404;7.734;2024-03-02T03:15:01;95935.44;;;2.28;100.00
23616;BME280;11985;49.404;7.734;2024-03-02T03:20:05;95939.22;;;2.26;100.00
23616;BME280;11985;49.404;7.734;2024-03-02T03:25:11;95942.69;;;2.11;100.00
23616;BME280;11985;49.404;7.734;2024-03-02T03:30:13;95945.63;;;2.08;100.00
23616;BME280;11985;49.404;7.734;2024-03-02T03:35:15;95938.94;;;1.99;100.00
23616;BME280;11985;49.404;7.734;2024-03-02T03:40:18;95940.41;;;1.87;100.00
23616;BME280;11985;49.404;7.734;2024-03-02T03:45:19;95938.59;;;2.02;100.00
23616;BME280;11985;49.404;7.734;2024-03-02T03:50:21;95934.25;;;2.31;100.00
23616;BME280;11985;49.404;7.734;2024-03-02T03:55:24;95944.84;;;2.51;100.00
23616;BME280;11985;49.404;7.734;2024-03-02T04:00:25;95938.41;;;2.75;100.00
23616;BME280;11985;49.404;7.734;2024-03-02T04:05:27;95937.53;;;2.89;100.00
23616;BME280;11985;49.404;7.734;2024-03-02T04:10:30;95934.44;;;3.07;100.00
23616;BME280;11985;49.404;7.734;2024-03-02T04:15:31;95934.84;;;3.10;100.00
23616;BME280;11985;49.404;7.734;2024-03-02T04:20:33;95932.25;;;3.10;100.00
23616;BME280;11985;49.404;7.734;2024-03-02T04:25:36;95933.34;;;3.23;100.00
23616;BME280;11985;49.404;7.734;2024-03-02T04:30:37;95939.38;;;3.36;100.00
23616;BME280;11985;49.404;7.734;2024-03-02T04:35:39;95943.69;;;3.57;100.00
23616;BME280;11985;49.404;7.734;2024-03-02T04:40:42;95956.75;;;3.70;100.00
23616;BME280;11985;49.404;7.734;2024-03-02T04:45:44;95954.03;;;3.92;100.00
23616;BME280;11985;49.404;7.734;2024-03-02T04:50:45;95943.47;;;4.13;100.00
23616;BME280;11985;49.404;7.734;2024-03-02T04:55:48;95952.94;;;4.41;100.00
23616;BME280;11985;49.404;7.734;2024-03-02T05:01:27;95955.78;;;4.72;100.00
23616;BME280;11985;49.404;7.734;2024-03-02T05:06:29;95968.19;;;4.97;100.00
23616;BME280;11985;49.404;7.734;2024-03-02T05:11:32;95971.41;;;5.12;100.00
23616;BME280;11985;49.404;7.734;2024-03-02T05:16:59;95968.16;;;5.23;100.00
23616;BME280;11985;49.404;7.734;2024-03-02T05:22:01;95978.59;;;5.30;100.00
23616;BME280;11985;49.404;7.734;2024-03-02T05:27:04;95978.38;;;5.45;100.00
23616;BME280;11985;49.404;7.734;2024-03-02T05:32:07;95979.34;;;5.57;100.00
23616;BME280;11985;49.404;7.734;2024-03-02T05:37:09;95982.50;;;5.66;100.00
23616;BME280;11985;49.404;7.734;2024-03-02T05:42:12;95985.94;;;5.66;100.00
23616;BME280;11985;49.404;7.734;2024-03-02T05:47:13;95982.50;;;5.72;100.00
23616;BME280;11985;49.404;7.734;2024-03-02T05:52:15;95973.06;;;5.71;100.00
23616;BME280;11985;49.404;7.734;2024-03-02T05:57:19;95986.16;;;5.58;100.00
23616;BME280;11985;49.404;7.734;2024-03-02T06:02:34;95980.94;;;5.58;100.00
23616;BME280;11985;49.404;7.734;2024-03-02T06:07:36;95987.75;;;5.59;100.00
23616;BME280;11985;49.404;7.734;2024-03-02T06:12:39;95984.13;;;5.60;100.00
23616;BME280;11985;49.404;7.734;2024-03-02T06:17:40;95988.78;;;5.58;100.00
23616;BME280;11985;49.404;7.734;2024-03-02T06:22:42;95989.38;;;5.53;100.00
23616;BME280;11985;49.404;7.734;2024-03-02T06:27:45;95990.56;;;5.64;100.00
23616;BME280;11985;49.404;7.734;2024-03-02T06:32:46;96000.16;;;5.83;100.00
23616;BME280;11985;49.404;7.734;2024-03-02T06:37:48;96008.78;;;5.91;100.00
23616;BME280;11985;49.404;7.734;2024-03-02T06:42:51;96010.19;;;5.87;100.00
23616;BME280;11985;49.404;7.734;2024-03-02T06:47:53;96021.47;;;5.80;100.00
23616;BME280;11985;49.404;7.734;2024-03-02T06:52:54;96017.03;;;5.81;100.00
23616;BME280;11985;49.404;7.734;2024-03-02T06:57:58;96029.09;;;5.89;100.00
23616;BME280;11985;49.404;7.734;2024-03-02T07:03:00;96026.44;;;6.02;100.00
23616;BME280;11985;49.404;7.734;2024-03-02T07:08:03;96027.97;;;6.16;100.00
23616;BME280;11985;49.404;7.734;2024-03-02T07:13:06;96035.03;;;6.16;100.00
23616;BME280;11985;49.404;7.734;2024-03-02T07:18:08;96037.03;;;6.20;100.00
23616;BME280;11985;49.404;7.734;2024-03-02T07:23:10;96035.59;;;6.24;100.00
23616;BME280;11985;49.404;7.734;2024-03-02T07:28:12;96033.34;;;6.34;100.00
23616;BME280;11985;49.404;7.734;2024-03-02T07:33:14;96043.66;;;6.61;100.00
23616;BME280;11985;49.404;7.734;2024-03-02T07:38:17;96036.91;;;6.78;100.00
23616;BME280;11985;49.404;7.734;2024-03-02T07:43:20;96035.63;;;6.87;100.00
23616;BME280;11985;49.404;7.734;2024-03-02T07:48:21;96030.56;;;6.93;100.00
23616;BME280;11985;49.404;7.734;2024-03-02T07:53:23;96035.59;;;6.94;100.00
23616;BME280;11985;49.404;7.734;2024-03-02T07:58:26;96039.81;;;6.95;100.00
23616;BME280;11985;49.404;7.734;2024-03-02T08:03:28;96038.59;;;6.98;100.00
23616;BME280;11985;49.404;7.734;2024-03-02T08:08:29;96041.53;;;7.08;100.00
23616;BME280;11985;49.404;7.734;2024-03-02T08:13:32;96049.97;;;7.35;100.00
23616;BME280;11985;49.404;7.734;2024-03-02T08:18:34;96047.28;;;7.66;100.00
23616;BME280;11985;49.404;7.734;2024-03-02T08:23:36;96047.13;;;7.80;100.00
23616;BME280;11985;49.404;7.734;2024-03-02T08:28:39;96045.03;;;7.88;100.00
23616;BME280;11985;49.404;7.734;2024-03-02T08:33:41;96036.88;;;7.97;100.00
23616;BME280;11985;49.404;7.734;2024-03-02T08:38:43;96044.88;;;8.02;100.00
23616;BME280;11985;49.404;7.734;2024-03-02T08:43:46;96040.81;;;8.06;100.00
23616;BME280;11985;49.404;7.734;2024-03-02T08:48:48;96040.72;;;8.12;100.00
23616;BME280;11985;49.404;7.734;2024-03-02T08:53:50;96046.59;;;8.26;100.00
23616;BME280;11985;49.404;7.734;2024-03-02T08:58:53;96046.81;;;8.43;100.00
23616;BME280;11985;49.404;7.734;2024-03-02T09:03:54;96044.50;;;8.65;100.00
23616;BME280;11985;49.404;7.734;2024-03-02T09:08:56;96044.69;;;8.82;100.00
23616;BME280;11985;49.404;7.734;2024-03-02T09:13:59;96049.78;;;9.07;100.00
23616;BME280;11985;49.404;7.734;2024-03-02T09:19:01;96044.06;;;9.10;100.00
23616;BME280;11985;49.404;7.734;2024-03-02T09:24:03;96041.22;;;8.99;100.00
23616;BME280;11985;49.404;7.734;2024-03-02T09:29:06;96041.25;;;9.23;100.00
23616;BME280;11985;49.404;7.734;2024-03-02T09:34:07;96046.75;;;9.33;100.00
23616;BME280;11985;49.404;7.734;2024-03-02T09:39:09;96037.16;;;9.50;100.00
23616;BME280;11985;49.404;7.734;2024-03-02T09:44:12;96031.91;;;9.50;100.00
23616;BME280;11985;49.404;7.734;2024-03-02T09:49:14;96017.84;;;9.57;100.00
23616;BME280;11985;49.404;7.734;2024-03-02T09:54:15;96023.06;;;9.68;100.00
23616;BME280;11985;49.404;7.734;2024-03-02T09:59:19;96025.34;;;10.00;100.00
23616;BME280;11985;49.404;7.734;2024-03-02T10:04:20;96028.81;;;10.29;100.00
23616;BME280;11985;49.404;7.734;2024-03-02T10:09:27;96023.63;;;10.46;100.00
23616;BME280;11985;49.404;7.734;2024-03-02T10:14:30;96023.56;;;10.29;100.00
23616;BME280;11985;49.404;7.734;2024-03-02T10:19:32;96022.53;;;10.30;100.00
23616;BME280;11985;49.404;7.734;2024-03-02T10:24:37;96016.22;;;10.31;100.00
23616;BME280;11985;49.404;7.734;2024-03-02T10:29:41;96015.97;;;10.44;100.00
23616;BME280;11985;49.404;7.734;2024-03-02T10:34:44;96016.72;;;10.56;100.00
23616;BME280;11985;49.404;7.734;2024-03-02T10:39:46;96007.25;;;10.72;100.00
23616;BME280;11985;49.404;7.734;2024-03-02T10:44:49;96005.50;;;10.78;100.00
23616;BME280;11985;49.404;7.734;2024-03-02T10:49:51;96000.72;;;10.92;100.00
23616;BME280;11985;49.404;7.734;2024-03-02T10:54:53;95990.34;;;11.19;100.00
23616;BME280;11985;49.404;7.734;2024-03-02T11:00:01;95993.63;;;11.64;100.00
23616;BME280;11985;49.404;7.734;2024-03-02T11:05:06;95990.88;;;11.93;100.00
23616;BME280;11985;49.404;7.734;2024-03-02T11:10:09;95983.66;;;12.05;100.00
23616;BME280;11985;49.404;7.734;2024-03-02T11:15:17;95976.41;;;11.96;100.00
23616;BME280;11985;49.404;7.734;2024-03-02T11:20:20;95969.69;;;11.88;100.00
23616;BME280;11985;49.404;7.734;2024-03-02T11:25:23;95970.28;;;11.90;100.00
23616;BME280;11985;49.404;7.734;2024-03-02T11:30:51;95959.22;;;11.93;100.00
23616;BME280;11985;49.404;7.734;2024-03-02T11:35:55;95960.50;;;11.91;100.00
23616;BME280;11985;49.404;7.734;2024-03-02T11:40:57;95950.44;;;12.09;100.00
23616;BME280;11985;49.404;7.734;2024-03-02T11:46:04;95947.44;;;12.23;100.00
23616;BME280;11985;49.404;7.734;2024-03-02T11:51:07;95949.19;;;12.39;100.00
23616;BME280;11985;49.404;7.734;2024-03-02T11:56:09;95949.44;;;12.15;99.65
23616;BME280;11985;49.404;7.734;2024-03-02T12:01:13;95936.34;;;12.26;100.00
23616;BME280;11985;49.404;7.734;2024-03-02T12:06:15;95924.22;;;12.25;98.74
23616;BME280;11985;49.404;7.734;2024-03-02T12:11:20;95923.72;;;12.28;98.87
23616;BME280;11985;49.404;7.734;2024-03-02T12:16:26;95916.94;;;12.37;98.60
23616;BME280;11985;49.404;7.734;2024-03-02T12:21:28;95912.63;;;12.58;97.46
23616;BME280;11985;49.404;7.734;2024-03-02T12:26:30;95912.69;;;12.63;96.20
23616;BME280;11985;49.404;7.734;2024-03-02T12:31:33;95908.50;;;12.67;95.48
23616;BME280;11985;49.404;7.734;2024-03-02T12:36:37;95913.63;;;12.79;95.98
23616;BME280;11985;49.404;7.734;2024-03-02T12:41:39;95905.59;;;13.01;94.52
23616;BME280;11985;49.404;7.734;2024-03-02T12:46:42;95906.06;;;13.30;92.96
23616;BME280;11985;49.404;7.734;2024-03-02T12:51:44;95909.72;;;13.24;91.85
23616;BME280;11985;49.404;7.734;2024-03-02T12:56:47;95906.63;;;13.00;89.88
23616;BME280;11985;49.404;7.734;2024-03-02T13:01:54;95894.06;;;12.80;90.56
23616;BME280;11985;49.404;7.734;2024-03-02T13:06:57;95891.59;;;12.68;90.79
23616;BME280;11985;49.404;7.734;2024-03-02T13:11:59;95896.63;;;12.69;90.99
23616;BME280;11985;49.404;7.734;2024-03-02T13:17:03;95893.91;;;12.97;91.62
23616;BME280;11985;49.404;7.734;2024-03-02T13:22:05;95889.50;;;13.07;90.26
23616;BME280;11985;49.404;7.734;2024-03-02T13:27:07;95882.56;;;12.96;89.95
23616;BME280;11985;49.404;7.734;2024-03-02T13:32:10;95886.34;;;12.73;88.76
23616;BME280;11985;49.404;7.734;2024-03-02T13:37:11;95882.75;;;12.52;90.08
23616;BME280;11985;49.404;7.734;2024-03-02T13:42:13;95869.00;;;12.50;91.29
23616;BME280;11985;49.404;7.734;2024-03-02T13:47:17;95867.53;;;12.64;91.82
23616;BME280;11985;49.404;7.734;2024-03-02T13:52:18;95856.03;;;12.81;91.49
23616;BME280;11985;49.404;7.734;2024-03-02T13:57:20;95845.03;;;12.94;89.82
23616;BME280;11985;49.404;7.734;2024-03-02T14:02:24;95845.50;;;12.86;89.83
23616;BME280;11985;49.404;7.734;2024-03-02T14:07:26;95843.44;;;12.98;90.65
23616;BME280;11985;49.404;7.734;2024-03-02T14:12:28;95846.00;;;12.83;89.75
23616;BME280;11985;49.404;7.734;2024-03-02T14:17:31;95837.53;;;12.81;90.58
23616;BME280;11985;49.404;7.734;2024-03-02T14:22:33;95834.28;;;12.68;89.75
23616;BME280;11985;49.404;7.734;2024-03-02T14:27:35;95828.44;;;12.61;90.25
23616;BME280;11985;49.404;7.734;2024-03-02T14:32:38;95824.72;;;12.62;90.18
23616;BME280;11985;49.404;7.734;2024-03-02T14:37:40;95820.50;;;12.61;90.45
23616;BME280;11985;49.404;7.734;2024-03-02T14:42:41;95815.78;;;12.68;92.29
23616;BME280;11985;49.404;7.734;2024-03-02T14:47:48;95807.47;;;12.92;92.72
23616;BME280;11985;49.404;7.734;2024-03-02T14:52:50;95801.09;;;12.88;92.26
23616;BME280;11985;49.404;7.734;2024-03-02T14:57:52;95798.16;;;12.79;91.75
23616;BME280;11985;49.404;7.734;2024-03-02T15:02:55;95809.75;;;12.73;92.53
23616;BME280;11985;49.404;7.734;2024-03-02T15:07:57;95806.25;;;12.62;93.33
23616;BME280;11985;49.404;7.734;2024-03-02T15:12:59;95804.63;;;12.56;93.72
23616;BME280;11985;49.404;7.734;2024-03-02T15:18:03;95808.72;;;12.42;94.28
23616;BME280;11985;49.404;7.734;2024-03-02T15:23:05;95799.69;;;12.33;95.54
23616;BME280;11985;49.404;7.734;2024-03-02T15:28:06;95801.78;;;12.31;97.37
23616;BME280;11985;49.404;7.734;2024-03-02T15:33:09;95796.63;;;12.14;96.24
23616;BME280;11985;49.404;7.734;2024-03-02T15:38:11;95790.41;;;11.98;98.39
23616;BME280;11985;49.404;7.734;2024-03-02T15:43:15;95795.69;;;11.98;99.96
23616;BME280;11985;49.404;7.734;2024-03-02T15:48:18;95780.91;;;11.97;99.96
23616;BME280;11985;49.404;7.734;2024-03-02T15:53:20;95781.25;;;12.06;100.00
23616;BME280;11985;49.404;7.734;2024-03-02T15:58:22;95781.66;;;12.25;100.00
23616;BME280;11985;49.404;7.734;2024-03-02T16:03:25;95778.84;;;12.36;100.00
23616;BME280;11985;49.404;7.734;2024-03-02T16:08:26;95780.06;;;12.24;100.00
23616;BME280;11985;49.404;7.734;2024-03-02T16:13:28;95782.09;;;12.11;100.00
23616;BME280;11985;49.404;7.734;2024-03-02T16:18:31;95785.06;;;11.93;100.00
23616;BME280;11985;49.404;7.734;2024-03-02T16:23:34;95796.97;;;11.69;100.00
23616;BME280;11985;49.404;7.734;2024-03-02T16:28:35;95775.22;;;11.56;100.00
23616;BME280;11985;49.404;7.734;2024-03-02T16:33:39;95767.50;;;11.50;100.00
23616;BME280;11985;49.404;7.734;2024-03-02T16:38:40;95761.31;;;11.39;100.00
23616;BME280;11985;49.404;7.734;2024-03-02T16:43:43;95761.69;;;11.26;100.00
23616;BME280;11985;49.404;7.734;2024-03-02T16:48:47;95743.63;;;11.13;100.00
23616;BME280;11985;49.404;7.734;2024-03-02T16:53:48;95740.88;;;11.02;100.00
23616;BME280;11985;49.404;7.734;2024-03-02T16:58:50;95744.16;;;10.93;100.00
23616;BME280;11985;49.404;7.734;2024-03-02T17:03:53;95728.06;;;10.89;100.00
23616;BME280;11985;49.404;7.734;2024-03-02T17:08:56;95739.41;;;10.90;100.00
23616;BME280;11985;49.404;7.734;2024-03-02T17:13:58;95740.19;;;10.90;100.00
23616;BME280;11985;49.404;7.734;2024-03-02T17:19:01;95747.53;;;10.88;100.00
23616;BME280;11985;49.404;7.734;2024-03-02T17:24:04;95754.34;;;10.84;100.00
23616;BME280;11985;49.404;7.734;2024-03-02T17:29:05;95764.03;;;10.62;100.00
23616;BME280;11985;49.404;7.734;2024-03-02T17:34:08;95770.94;;;10.46;100.00
23616;BME280;11985;49.404;7.734;2024-03-02T17:39:10;95772.59;;;10.35;100.00
23616;BME280;11985;49.404;7.734;2024-03-02T17:44:12;95771.88;;;10.23;100.00
23616;BME280;11985;49.404;7.734;2024-03-02T17:49:15;95770.13;;;10.12;100.00
23616;BME280;11985;49.404;7.734;2024-03-02T17:54:17;95777.28;;;9.99;100.00
23616;BME280;11985;49.404;7.734;2024-03-02T17:59:18;95763.53;;;9.81;100.00
23616;BME280;11985;49.404;7.734;2024-03-02T18:04:21;95759.66;;;9.55;100.00
23616;BME280;11985;49.404;7.734;2024-03-02T18:09:23;95765.13;;;9.36;100.00
23616;BME280;11985;49.404;7.734;2024-03-02T18:14:25;95771.22;;;9.25;100.00
23616;BME280;11985;49.404;7.734;2024-03-02T18:19:28;95759.72;;;9.14;100.00
23616;BME280;11985;49.404;7.734;2024-03-02T18:24:31;95759.06;;;9.07;100.00
23616;BME280;11985;49.404;7.734;2024-03-02T18:29:33;95750.13;;;9.08;100.00
23616;BME280;11985;49.404;7.734;2024-03-02T18:34:36;95744.75;;;9.15;100.00
23616;BME280;11985;49.404;7.734;2024-03-02T18:39:37;95755.84;;;9.17;100.00
23616;BME280;11985;49.404;7.734;2024-03-02T18:44:39;95755.34;;;9.20;100.00
23616;BME280;11985;49.404;7.734;2024-03-02T18:49:43;95756.19;;;9.09;100.00
23616;BME280;11985;49.404;7.734;2024-03-02T18:54:46;95750.28;;;9.02;100.00
23616;BME280;11985;49.404;7.734;2024-03-02T18:59:47;95751.66;;;8.92;100.00
23616;BME280;11985;49.404;7.734;2024-03-02T19:04:51;95753.06;;;8.83;100.00
23616;BME280;11985;49.404;7.734;2024-03-02T19:09:53;95759.69;;;8.74;100.00
23616;BME280;11985;49.404;7.734;2024-03-02T19:14:54;95751.25;;;8.72;100.00
23616;BME280;11985;49.404;7.734;2024-03-02T19:19:57;95752.84;;;8.73;100.00
23616;BME280;11985;49.404;7.734;2024-03-02T19:24:59;95741.19;;;8.69;100.00
23616;BME280;11985;49.404;7.734;2024-03-02T19:30:01;95721.13;;;8.63;100.00
23616;BME280;11985;49.404;7.734;2024-03-02T19:35:07;95706.03;;;8.70;100.00
23616;BME280;11985;49.404;7.734;2024-03-02T19:40:12;95681.00;;;8.91;100.00
23616;BME280;11985;49.404;7.734;2024-03-02T19:45:14;95683.59;;;9.03;100.00
23616;BME280;11985;49.404;7.734;2024-03-02T19:50:17;95666.22;;;9.30;100.00
23616;BME280;11985;49.404;7.734;2024-03-02T19:55:18;95662.03;;;9.63;100.00
23616;BME280;11985;49.404;7.734;2024-03-02T20:00:21;95662.75;;;9.75;100.00
23616;BME280;11985;49.404;7.734;2024-03-02T20:05:24;95663.63;;;9.64;100.00
23616;BME280;11985;49.404;7.734;2024-03-02T20:10:26;95669.22;;;9.50;100.00
23616;BME280;11985;49.404;7.734;2024-03-02T20:15:28;95680.03;;;9.54;100.00
23616;BME280;11985;49.404;7.734;2024-03-02T20:20:31;95678.75;;;9.57;100.00
23616;BME280;11985;49.404;7.734;2024-03-02T20:25:32;95693.41;;;9.52;100.00
23616;BME280;11985;49.404;7.734;2024-03-02T20:30:34;95697.44;;;9.43;100.00
23616;BME280;11985;49.404;7.734;2024-03-02T20:35:37;95695.75;;;9.37;100.00
23616;BME280;11985;49.404;7.734;2024-03-02T20:40:39;95694.28;;;9.41;100.00
23616;BME280;11985;49.404;7.734;2024-03-02T20:45:42;95698.28;;;9.61;100.00
23616;BME280;11985;49.404;7.734;2024-03-02T20:50:45;95693.75;;;9.73;100.00
23616;BME280;11985;49.404;7.734;2024-03-02T20:55:47;95690.09;;;9.74;100.00
23616;BME280;11985;49.404;7.734;2024-03-02T21:00:48;95692.16;;;9.72;100.00
23616;BME280;11985;49.404;7.734;2024-03-02T21:05:51;95689.75;;;9.53;100.00
23616;BME280;11985;49.404;7.734;2024-03-02T21:10:53;95692.03;;;9.33;100.00
23616;BME280;11985;49.404;7.734;2024-03-02T21:15:55;95685.91;;;9.28;100.00
23616;BME280;11985;49.404;7.734;2024-03-02T21:20:58;95689.22;;;9.23;100.00
23616;BME280;11985;49.404;7.734;2024-03-02T21:25:59;95692.31;;;9.20;100.00
23616;BME280;11985;49.404;7.734;2024-03-02T21:31:03;95688.28;;;9.29;100.00
23616;BME280;11985;49.404;7.734;2024-03-02T21:36:06;95695.56;;;9.27;100.00
23616;BME280;11985;49.404;7.734;2024-03-02T21:41:08;95686.81;;;9.21;100.00
23616;BME280;11985;49.404;7.734;2024-03-02T21:46:10;95683.28;;;9.16;100.00
23616;BME280;11985;49.404;7.734;2024-03-02T21:51:15;95671.38;;;9.25;100.00
23616;BME280;11985;49.404;7.734;2024-03-02T21:56:17;95674.91;;;9.47;100.00
23616;BME280;11985;49.404;7.734;2024-03-02T22:01:19;95650.41;;;9.59;100.00
23616;BME280;11985;49.404;7.734;2024-03-02T22:06:22;95646.97;;;9.58;100.00
23616;BME280;11985;49.404;7.734;2024-03-02T22:11:23;95666.88;;;9.54;100.00
23616;BME280;11985;49.404;7.734;2024-03-02T22:16:25;95660.56;;;9.38;100.00
23616;BME280;11985;49.404;7.734;2024-03-02T22:21:28;95652.44;;;9.23;100.00
23616;BME280;11985;49.404;7.734;2024-03-02T22:26:30;95647.75;;;8.96;100.00
23616;BME280;11985;49.404;7.734;2024-03-02T22:31:31;95657.59;;;8.61;100.00
23616;BME280;11985;49.404;7.734;2024-03-02T22:36:34;95656.81;;;8.25;100.00
23616;BME280;11985;49.404;7.734;2024-03-02T22:41:36;95661.16;;;8.08;100.00
23616;BME280;11985;49.404;7.734;2024-03-02T22:46:37;95653.97;;;8.03;100.00
23616;BME280;11985;49.404;7.734;2024-03-02T22:51:40;95659.09;;;7.86;100.00
23616;BME280;11985;49.404;7.734;2024-03-02T22:56:42;95648.50;;;7.70;100.00
23616;BME280;11985;49.404;7.734;2024-03-02T23:01:45;95651.47;;;7.50;100.00
23616;BME280;11985;49.404;7.734;2024-03-02T23:06:48;95645.72;;;7.29;100.00
23616;BME280;11985;49.404;7.734;2024-03-02T23:11:50;95640.09;;;7.26;100.00
23616;BME280;11985;49.404;7.734;2024-03-02T23:16:52;95626.78;;;7.27;100.00
23616;BME280;11985;49.404;7.734;2024-03-02T23:21:55;95616.00;;;7.35;100.00
23616;BME280;11985;49.404;7.734;2024-03-02T23:26:56;95600.06;;;7.49;100.00
23616;BME280;11985;49.404;7.734;2024-03-02T23:31:58;95613.75;;;7.51;100.00
23616;BME280;11985;49.404;7.734;2024-03-02T23:37:01;95629.09;;;7.35;100.00
23616;BME280;11985;49.404;7.734;2024-03-02T23:42:03;95620.72;;;7.15;100.00
23616;BME280;11985;49.404;7.734;2024-03-02T23:47:05;95612.84;;;7.03;100.00
23616;BME280;11985;49.404;7.734;2024-03-02T23:52:09;95608.84;;;6.89;100.00
23616;BME280;11985;49.404;7.734;2024-03-02T23:57:10;95603.44;;;6.72;100.00
